Time;durP1;ratioP1;P1;durP2;ratioP2;P2;SDS_P1;SDS_P2;PMS_P1;PMS_P2;Temp;Humidity;BMP_temperature;BMP_pressure;BME280_temperature;BME280_humidity;BME280_pressure;Samples;Min_cycle;Max_cycle;Signal;HPM_P1;HPM_P2
2023/03/20 00:00:08;;;;;;;191.63;72.00;;;;;;;;;;295980;33;4750;-74
2023/03/20 00:00:21;;;;;;;191.82;72.55;;;;;;;;;;296897;33;3419;-76
2023/03/20 00:00:35;;;;;;;193.68;73.43;;;;;;;;;;296289;33;2749;-75
2023/03/20 00:00:46;;;;;;;193.63;73.25;;;;;;;;;;295945;33;4268;-74
2023/03/20 00:00:56;;;;;;;192.75;73.50;;;;;;;;;;292952;33;1501;-75
2023/03/20 00:01:20;;;;;;;195.20;75.50;;;;;;;;;;293830;33;1208;-75
2023/03/20 00:01:31;;;;;;;194.63;73.93;;;;;;;;;;289130;33;6008;-76
2023/03/20 00:01:42;;;;;;;191.20;72.68;;;;;;;;;;287093;34;1280;-75
2023/03/20 00:01:52;;;;;;;188.85;72.65;;;;;;;;;;286259;34;892;-76
2023/03/20 00:02:03;;;;;;;190.83;73.47;;;;;;;;;;285457;34;6278;-75
2023/03/20 00:02:17;;;;;;;190.68;73.65;;;;;;;;;;282718;34;6658;-74
2023/03/20 00:02:27;;;;;;;192.60;74.85;;;;;;;;;;282174;34;5148;-74
2023/03/20 00:02:37;;;;;;;193.97;75.87;;;;;;;;;;285255;34;975;-74
2023/03/20 00:02:47;;;;;;;195.80;76.05;;;;;;;;;;283812;34;5041;-75
2023/03/20 00:02:58;;;;;;;192.53;75.17;;;;;;;;;;282192;34;6686;-74
2023/03/20 00:03:11;;;;;;;191.93;74.47;;;;;;;;;;281706;35;903;-74
2023/03/20 00:03:21;;;;;;;193.63;74.80;;;;;;;;;;278600;35;7399;-74
2023/03/20 00:03:31;;;;;;;194.93;74.30;;;;;;;;;;275792;35;10636;-74
2023/03/20 00:03:42;;;;;;;197.10;75.63;;;;;;;;;;274215;35;4174;-74
2023/03/20 00:03:52;;;;;;;192.27;74.28;;;;;;;;;;271089;36;3021;-74
2023/03/20 00:04:02;;;;;;;188.33;73.33;;;;;;;;;;269839;36;9490;-74
2023/03/20 00:05:51;;;;;;;187.34;70.89;;;;;;;;;;2501675;27;20489;-75
2023/03/20 00:06:02;;;;;;;186.87;70.63;;;;;;;;;;354283;27;866;-74
2023/03/20 00:06:18;;;;;;;186.38;71.43;;;;;;;;;;351542;28;1507;-73
2023/03/20 00:06:29;;;;;;;188.45;71.85;;;;;;;;;;350033;28;804;-73
2023/03/20 00:06:39;;;;;;;191.60;72.68;;;;;;;;;;347310;28;1337;-73
2023/03/20 00:06:49;;;;;;;192.17;72.67;;;;;;;;;;350123;28;1195;-73
2023/03/20 00:06:59;;;;;;;191.57;72.67;;;;;;;;;;349968;28;792;-73
2023/03/20 00:07:11;;;;;;;190.87;72.07;;;;;;;;;;350096;28;1212;-73
2023/03/20 00:07:21;;;;;;;191.82;71.82;;;;;;;;;;348702;28;938;-73
2023/03/20 00:07:31;;;;;;;192.63;71.43;;;;;;;;;;347502;28;920;-74
2023/03/20 00:07:42;;;;;;;192.07;71.28;;;;;;;;;;348658;28;995;-75
2023/03/20 00:07:54;;;;;;;192.85;71.00;;;;;;;;;;347338;28;1760;-76
2023/03/20 00:08:04;;;;;;;191.30;71.03;;;;;;;;;;349882;28;937;-75
2023/03/20 00:08:14;;;;;;;192.77;70.53;;;;;;;;;;351494;28;1345;-75
2023/03/20 00:08:25;;;;;;;194.27;71.40;;;;;;;;;;350109;28;1242;-75
2023/03/20 00:08:35;;;;;;;195.13;72.63;;;;;;;;;;350117;28;1571;-75
2023/03/20 00:08:46;;;;;;;191.48;72.90;;;;;;;;;;350134;28;804;-75
2023/03/20 00:08:56;;;;;;;191.07;73.07;;;;;;;;;;350073;28;1333;-75
2023/03/20 00:09:07;;;;;;;188.18;72.20;;;;;;;;;;345880;28;1346;-75
2023/03/20 00:09:17;;;;;;;190.00;72.47;;;;;;;;;;347244;28;828;-75
2023/03/20 00:09:27;;;;;;;192.02;72.25;;;;;;;;;;349040;28;977;-75
2023/03/20 00:09:38;;;;;;;193.33;72.07;;;;;;;;;;350098;28;1070;-75
2023/03/20 00:09:48;;;;;;;191.47;72.20;;;;;;;;;;350017;28;959;-75
2023/03/20 00:09:58;;;;;;;191.55;71.93;;;;;;;;;;347151;28;1228;-75
2023/03/20 00:10:09;;;;;;;192.27;71.63;;;;;;;;;;347455;28;781;-74
2023/03/20 00:10:20;;;;;;;193.07;70.75;;;;;;;;;;347243;28;1040;-74
2023/03/20 00:10:32;;;;;;;189.60;70.20;;;;;;;;;;347248;28;941;-74
2023/03/20 00:10:43;;;;;;;191.38;71.70;;;;;;;;;;347245;28;1569;-74
2023/03/20 00:10:54;;;;;;;192.60;72.30;;;;;;;;;;346725;28;1000;-74
2023/03/20 00:11:04;;;;;;;192.52;71.32;;;;;;;;;;347398;28;749;-74
2023/03/20 00:11:21;;;;;;;193.33;72.63;;;;;;;;;;347285;28;869;-74
2023/03/20 00:11:32;;;;;;;194.80;73.07;;;;;;;;;;347218;28;1273;-74
2023/03/20 00:11:47;;;;;;;192.88;72.25;;;;;;;;;;346248;28;1576;-74
2023/03/20 00:11:57;;;;;;;192.43;74.00;;;;;;;;;;347771;28;935;-76
2023/03/20 00:12:09;;;;;;;190.60;73.33;;;;;;;;;;350322;28;619;-75
2023/03/20 00:12:22;;;;;;;190.90;72.63;;;;;;;;;;348528;28;1193;-75
2023/03/20 00:12:32;;;;;;;191.80;71.97;;;;;;;;;;346085;28;1164;-75
2023/03/20 00:12:43;;;;;;;192.05;72.10;;;;;;;;;;344822;28;1237;-75
2023/03/20 00:12:53;;;;;;;189.63;72.53;;;;;;;;;;343236;28;4141;-76
2023/03/20 00:13:04;;;;;;;187.70;71.63;;;;;;;;;;345739;28;1401;-75
2023/03/20 00:13:17;;;;;;;190.73;72.07;;;;;;;;;;344597;28;874;-74
2023/03/20 00:13:28;;;;;;;193.13;72.22;;;;;;;;;;344595;28;1253;-74
2023/03/20 00:13:38;;;;;;;194.53;73.20;;;;;;;;;;343139;28;1206;-75
2023/03/20 00:13:48;;;;;;;193.48;73.13;;;;;;;;;;341749;28;1148;-75
2023/03/20 00:14:00;;;;;;;191.73;72.27;;;;;;;8.73;nan;99927.81;339881;29;1438;-75
2023/03/20 00:14:12;;;;;;;189.68;71.70;;;;;;;;;;336418;29;1283;-75
2023/03/20 00:14:23;;;;;;;189.05;72.63;;;;;;;;;;335490;29;847;-75
2023/03/20 00:14:33;;;;;;;191.07;73.75;;;;;;;;;;335921;29;1797;-75
2023/03/20 00:14:44;;;;;;;192.00;73.07;;;;;;;;;;334712;29;1974;-75
2023/03/20 00:14:54;;;;;;;191.93;73.25;;;;;;;;;;338003;29;814;-75
2023/03/20 00:15:05;;;;;;;193.87;73.97;;;;;;;;;;340424;29;867;-75
2023/03/20 00:15:21;;;;;;;195.35;74.20;;;;;;;;;;340535;29;1067;-75
2023/03/20 00:15:38;;;;;;;193.63;73.10;;;;;;;;;;339570;29;1319;-75
2023/03/20 00:15:49;;;;;;;193.12;73.74;;;;;;;;;;340221;28;1423;-75
2023/03/20 00:15:59;;;;;;;193.57;74.40;;;;;;;;;;337090;29;1162;-75
2023/03/20 00:16:10;;;;;;;193.63;74.80;;;;;;;;;;337073;29;865;-76
2023/03/20 00:16:21;;;;;;;195.13;75.95;;;;;;;;;;340155;29;1865;-78
2023/03/20 00:16:32;;;;;;;195.30;75.13;;;;;;;;;;339323;28;2206;-76
2023/03/20 00:16:43;;;;;;;192.63;73.47;;;;;;;;;;337675;29;2158;-75
2023/03/20 00:16:53;;;;;;;192.53;73.67;;;;;;;;;;336550;29;1232;-74
2023/03/20 00:17:07;;;;;;;192.30;73.80;;;;;;;;;;333137;29;1748;-73
2023/03/20 00:17:18;;;;;;;191.55;73.47;;;;;;;;;;331026;29;1355;-73
2023/03/20 00:17:29;;;;;;;190.70;71.88;;;;;;;;;;329296;29;1470;-73
2023/03/20 00:17:39;;;;;;;191.97;72.90;;;;;;;;;;329036;30;1339;-73
2023/03/20 00:17:49;;;;;;;196.60;74.63;;;;;;;;;;332346;29;1857;-73
2023/03/20 00:18:00;;;;;;;195.70;75.13;;;;;;;;;;332220;29;1536;-75
2023/03/20 00:18:17;;;;;;;195.40;75.27;;;;;;;;;;330377;29;1234;-74
2023/03/20 00:18:28;;;;;;;193.20;74.20;;;;;;;;;;328230;29;2246;-74
2023/03/20 00:18:38;;;;;;;190.48;73.13;;;;;;;;;;326615;30;908;-75
2023/03/20 00:18:49;;;;;;;191.23;73.72;;;;;;;;;;324978;30;2669;-75
2023/03/20 00:18:59;;;;;;;191.32;73.65;;;;;;;;;;322793;30;3126;-75
2023/03/20 00:19:19;;;;;;;190.93;73.53;;;;;;;;;;324306;30;907;-75
2023/03/20 00:19:29;;;;;;;190.60;72.60;;;;;;;;;;321559;30;1677;-74
2023/03/20 00:19:40;;;;;;;191.77;72.43;;;;;;;;;;322914;30;1314;-74
2023/03/20 00:19:50;;;;;;;191.35;72.55;;;;;;;;;;319473;30;878;-74
2023/03/20 00:20:00;;;;;;;191.17;73.20;;;;;;;;;;316773;30;2510;-74
2023/03/20 00:20:14;;;;;;;196.37;74.70;;;;;;;;;;312303;31;2574;-74
2023/03/20 00:20:24;;;;;;;201.00;75.60;;;;;;;;;;313402;31;1332;-74
2023/03/20 00:20:35;;;;;;;200.20;75.53;;;;;;;;;;316400;30;2832;-74
2023/03/20 00:20:45;;;;;;;195.13;74.45;;;;;;;;;;315520;31;3421;-74
2023/03/20 00:20:56;;;;;;;195.20;74.43;;;;;;;;;;313188;31;3221;-74
2023/03/20 00:21:10;;;;;;;195.23;74.15;;;;;;;;;;310436;31;1221;-74
2023/03/20 00:21:20;;;;;;;194.55;73.88;;;;;;;;;;309631;31;965;-74
2023/03/20 00:21:31;;;;;;;193.63;73.93;;;;;;;;;;309916;31;2568;-76
2023/03/20 00:21:41;;;;;;;195.60;74.67;;;;;;;;;;308208;31;2501;-74
2023/03/20 00:21:52;;;;;;;195.77;74.00;;;;;;;;;;308342;32;1501;-75
2023/03/20 00:22:02;;;;;;;194.45;74.13;;;;;;;;;;306588;31;4103;-74
2023/03/20 00:22:12;;;;;;;191.77;74.30;;;;;;;;;;305777;31;3527;-74
2023/03/20 00:22:22;;;;;;;192.55;76.30;;;;;;;;;;307113;32;942;-74
2023/03/20 00:22:33;;;;;;;197.07;76.43;;;;;;;;;;310584;31;3479;-74
2023/03/20 00:22:43;;;;;;;199.17;76.57;;;;;;;;;;310366;31;3981;-74
2023/03/20 00:22:54;;;;;;;198.73;75.47;;;;;;;;;;310568;31;823;-74
2023/03/20 00:23:05;;;;;;;194.52;74.85;;;;;;;;;;304219;32;4359;-74
2023/03/20 00:23:15;;;;;;;193.23;74.60;;;;;;;;;;303207;32;4338;-74
2023/03/20 00:23:25;;;;;;;194.55;74.78;;;;;;;;;;300306;32;4531;-74
2023/03/20 00:23:36;;;;;;;194.53;74.13;;;;;;;;;;298898;33;814;-74
2023/03/20 00:23:46;;;;;;;194.50;73.60;;;;;;;;;;300083;32;3683;-74
2023/03/20 00:23:56;;;;;;;192.27;73.93;;;;;;;;;;300672;32;3389;-74
2023/03/20 00:24:07;;;;;;;192.50;74.60;;;;;;;;;;300211;32;1336;-74
2023/03/20 00:24:17;;;;;;;194.23;75.72;;;;;;;;;;301822;32;4312;-74
2023/03/20 00:24:27;;;;;;;196.53;76.60;;;;;;;;;;301822;32;5101;-74
2023/03/20 00:24:37;;;;;;;197.90;77.87;;;;;;;;;;301064;32;1117;-74
2023/03/20 00:24:48;;;;;;;197.97;77.83;;;;;;;;;;296468;32;5305;-74
2023/03/20 00:24:58;;;;;;;195.15;76.43;;;;;;;;;;293301;33;5750;-74
2023/03/20 00:25:11;;;;;;;194.40;75.00;;;;;;;;;;295965;33;866;-74
2023/03/20 00:25:22;;;;;;;191.98;74.18;;;;;;;;;;293806;33;1290;-74
2023/03/20 00:25:32;;;;;;;191.77;73.80;;;;;;;;;;292167;33;5572;-74
2023/03/20 00:25:43;;;;;;;192.07;74.65;;;;;;;;;;290417;33;6433;-74
2023/03/20 00:25:53;;;;;;;191.97;74.20;;;;;;;;;;289000;34;1518;-74
2023/03/20 00:26:03;;;;;;;188.93;72.77;;;;;;;;;;286666;34;5147;-74
2023/03/20 00:26:14;;;;;;;194.55;74.20;;;;;;;;;;286361;34;4898;-74
2023/03/20 00:26:25;;;;;;;195.00;73.93;;;;;;;;;;287193;34;826;-74
2023/03/20 00:26:35;;;;;;;200.07;75.72;;;;;;;;;;283479;34;1382;-73
2023/03/20 00:26:46;;;;;;;197.27;76.53;;;;;;;;;;281987;34;8500;-73
2023/03/20 00:26:56;;;;;;;198.47;77.30;;;;;;;;;;282448;34;8183;-73
2023/03/20 00:27:08;;;;;;;195.80;76.47;;;;;;;;;;286288;34;1363;-74
2023/03/20 00:27:18;;;;;;;193.55;75.97;;;;;;;8.61;nan;99980.38;282624;34;8594;-74
2023/03/20 00:27:29;;;;;;;193.55;76.40;;;;;;;;;;279418;35;9041;-74
2023/03/20 00:27:39;;;;;;;192.73;76.20;;;;;;;;;;278840;35;1356;-74
2023/03/20 00:27:49;;;;;;;191.93;74.57;;;;;;;;;;282627;34;7638;-74
2023/03/20 00:30:08;;;;;;;191.02;71.18;;;;;;;;;;2502193;27;20969;-74
2023/03/20 00:30:20;;;;;;;192.90;72.07;;;;;;;;;;352813;28;1207;-74
2023/03/20 00:30:30;;;;;;;191.35;72.30;;;;;;;;;;350069;28;1338;-74
2023/03/20 00:30:40;;;;;;;191.83;72.50;;;;;;;;;;350107;28;1209;-75
2023/03/20 00:30:50;;;;;;;192.50;73.87;;;;;;;;;;350148;28;859;-75
2023/03/20 00:31:01;;;;;;;193.50;74.50;;;;;;;;;;350188;28;784;-75
2023/03/20 00:31:24;;;;;;;192.20;75.60;;;;;;;;;;348226;28;3969;-74
2023/03/20 00:31:37;;;;;;;187.63;72.68;;;;;;;;;;348634;28;837;-74
2023/03/20 00:31:47;;;;;;;192.85;71.95;;;;;;;;;;347422;28;1601;-74
2023/03/20 00:31:58;;;;;;;196.77;72.63;;;;;;;;;;346322;28;871;-74
2023/03/20 00:32:11;;;;;;;199.57;73.90;;;;;;;;;;347513;28;1248;-74
2023/03/20 00:32:22;;;;;;;190.90;74.22;;;;;;;;;;347386;28;801;-74
2023/03/20 00:32:32;;;;;;;192.33;74.57;;;;;;;;;;347612;28;785;-74
2023/03/20 00:32:42;;;;;;;191.37;73.63;;;;;;;;;;346077;28;1326;-74
2023/03/20 00:32:52;;;;;;;192.18;72.40;;;;;;;;;;346003;28;880;-74
2023/03/20 00:33:03;;;;;;;190.47;72.10;;;;;;;;;;346002;28;777;-74
2023/03/20 00:33:13;;;;;;;192.97;72.93;;;;;;;;;;347302;28;1271;-75
2023/03/20 00:33:25;;;;;;;193.25;74.72;;;;;;;;;;347234;28;850;-75
2023/03/20 00:33:37;;;;;;;194.07;74.88;;;;;;;;;;344492;28;1313;-75
2023/03/20 00:33:47;;;;;;;193.55;74.68;;;;;;;;;;342039;28;834;-75
2023/03/20 00:34:01;;;;;;;192.95;73.90;;;;;;;;;;342506;28;999;-75
2023/03/20 00:34:12;;;;;;;195.68;73.43;;;;;;;;;;344479;28;947;-75
2023/03/20 00:34:25;;;;;;;195.07;73.70;;;;;;;;;;344621;28;1111;-75
2023/03/20 00:34:36;;;;;;;192.52;73.47;;;;;;;;;;344981;28;865;-75
2023/03/20 00:34:46;;;;;;;193.00;72.53;;;;;;;;;;343361;28;1312;-75
2023/03/20 00:34:56;;;;;;;192.87;72.80;;;;;;;;;;342022;28;1391;-75
2023/03/20 00:35:16;;;;;;;197.97;73.70;;;;;;;;;;342084;28;857;-74
2023/03/20 00:35:28;;;;;;;199.40;74.00;;;;;;;;;;340422;29;1039;-74
2023/03/20 00:35:38;;;;;;;193.23;73.65;;;;;;;;;;341661;28;1449;-74
2023/03/20 00:35:48;;;;;;;192.27;73.43;;;;;;;;;;340504;29;1319;-74
2023/03/20 00:35:58;;;;;;;189.40;73.03;;;;;;;;;;345795;28;1325;-74
2023/03/20 00:36:09;;;;;;;189.68;72.65;;;;;;;;;;344243;28;960;-74
2023/03/20 00:36:19;;;;;;;190.00;73.50;;;;;;;;;;343258;28;1205;-74
2023/03/20 00:36:30;;;;;;;191.27;73.55;;;;;;;;;;342765;28;1343;-74
2023/03/20 00:36:40;;;;;;;192.37;73.70;;;;;;;;;;340229;28;1257;-74
2023/03/20 00:36:50;;;;;;;192.23;73.57;;;;;;;;;;343448;28;856;-74
2023/03/20 00:37:01;;;;;;;190.68;73.32;;;;;;;;;;342927;28;1427;-74
2023/03/20 00:37:11;;;;;;;190.20;73.05;;;;;;;;;;344812;28;1297;-74
2023/03/20 00:37:21;;;;;;;190.13;73.07;;;;;;;;;;341957;28;1226;-74
2023/03/20 00:37:32;;;;;;;189.00;73.07;;;;;;;;;;340641;28;1193;-74
2023/03/20 00:37:42;;;;;;;187.13;72.40;;;;;;;;;;340351;28;1241;-74
2023/03/20 00:37:52;;;;;;;187.00;71.38;;;;;;;;;;339009;29;1276;-74
2023/03/20 00:38:02;;;;;;;187.03;70.87;;;;;;;;;;343248;28;1225;-74
2023/03/20 00:38:13;;;;;;;190.17;70.90;;;;;;;;;;343051;28;1359;-74
2023/03/20 00:38:23;;;;;;;192.07;71.97;;;;;;;;;;343143;28;1076;-74
2023/03/20 00:38:33;;;;;;;193.35;72.13;;;;;;;;;;344640;28;952;-74
2023/03/20 00:38:44;;;;;;;190.70;72.20;;;;;;;;;;342208;28;1542;-74
2023/03/20 00:38:56;;;;;;;190.27;72.03;;;;;;;;;;342330;28;1984;-74
2023/03/20 00:39:06;;;;;;;191.75;72.60;;;;;;;;;;343228;28;1336;-74
2023/03/20 00:39:17;;;;;;;193.33;73.80;;;;;;;;;;341926;28;956;-74
2023/03/20 00:39:27;;;;;;;193.05;73.60;;;;;;;;;;341872;28;876;-74
2023/03/20 00:39:37;;;;;;;193.23;73.83;;;;;;;;;;341817;28;1141;-74
2023/03/20 00:39:47;;;;;;;190.97;72.67;;;;;;;;;;338141;29;803;-74
2023/03/20 00:39:57;;;;;;;192.67;74.07;;;;;;;;;;342650;28;1462;-74
2023/03/20 00:40:08;;;;;;;194.50;74.50;;;;;;;;;;342857;28;1730;-74
2023/03/20 00:40:18;;;;;;;197.00;75.80;;;;;;;;;;339309;28;3916;-74
2023/03/20 00:40:29;;;;;;;195.20;75.28;;;;;;;;;;335343;29;1919;-74
2023/03/20 00:40:40;;;;;;;192.10;74.83;;;;;;;;;;331712;29;1995;-75
2023/03/20 00:40:51;;;;;;;192.68;74.43;;;;;;;;;;332913;29;792;-75
2023/03/20 00:41:02;;;;;;;192.25;73.95;;;;;;;;;;336043;29;2170;-75
2023/03/20 00:41:32;;;;;;;193.87;73.87;;;;;;;;;;332137;29;1657;-74
2023/03/20 00:42:00;;;;;;;192.43;72.55;;;;;;;;;;331499;29;1308;-74
2023/03/20 00:42:17;;;;;;;186.32;70.40;;;;;;;;;;328148;29;2023;-74
2023/03/20 00:42:27;;;;;;;187.10;71.38;;;;;;;;;;326516;30;2404;-74
2023/03/20 00:42:37;;;;;;;191.27;73.07;;;;;;;;;;326235;29;2423;-74
2023/03/20 00:42:49;;;;;;;197.43;81.27;;;;;;;;;;322469;30;1091;-74
2023/03/20 00:43:00;;;;;;;197.57;81.90;;;;;;;;;;321584;30;2492;-74
2023/03/20 00:43:11;;;;;;;193.38;79.10;;;;;;;;;;320514;30;2632;-74
2023/03/20 00:43:21;;;;;;;189.73;72.03;;;;;;;;;;320654;30;865;-74
2023/03/20 00:43:31;;;;;;;189.90;73.25;;;;;;;;;;320430;30;1860;-74
2023/03/20 00:43:41;;;;;;;192.07;74.40;;;;;;;;;;323035;30;1290;-74
2023/03/20 00:43:56;;;;;;;192.87;73.40;;;;;;;;;;326499;30;1226;-75
2023/03/20 00:44:18;;;;;;;189.82;72.63;;;;;;;;;;321843;30;1388;-75
2023/03/20 00:44:52;;;;;;;192.05;74.28;;;;;;;8.40;nan;99955.69;318992;30;3394;-75
2023/03/20 00:45:04;;;;;;;190.15;73.28;;;;;;;;;;320821;30;888;-75
2023/03/20 00:45:15;;;;;;;194.68;74.38;;;;;;;;;;318770;30;3130;-74
2023/03/20 00:45:26;;;;;;;195.27;73.75;;;;;;;;;;313584;31;3336;-74
2023/03/20 00:45:36;;;;;;;193.10;73.20;;;;;;;;;;310531;31;1426;-74
2023/03/20 00:45:46;;;;;;;190.20;72.50;;;;;;;;;;314347;31;2545;-74
2023/03/20 00:45:56;;;;;;;187.37;72.83;;;;;;;;;;312322;31;2346;-74
2023/03/20 00:46:10;;;;;;;189.17;73.07;;;;;;;;;;310433;31;1308;-74
2023/03/20 00:46:20;;;;;;;190.10;73.88;;;;;;;;;;310528;31;773;-74
2023/03/20 00:46:31;;;;;;;190.88;73.40;;;;;;;;;;307841;31;4221;-74
2023/03/20 00:46:41;;;;;;;188.83;73.37;;;;;;;;;;304938;32;4503;-74
2023/03/20 00:46:58;;;;;;;187.60;72.63;;;;;;;;;;305136;32;1254;-75
2023/03/20 00:47:12;;;;;;;188.07;73.05;;;;;;;;;;307207;32;4707;-74
2023/03/20 00:47:23;;;;;;;188.98;73.45;;;;;;;;;;300208;32;4265;-75
2023/03/20 00:47:33;;;;;;;187.23;71.70;;;;;;;;;;297853;33;1276;-75
2023/03/20 00:47:43;;;;;;;188.60;71.90;;;;;;;;;;303522;32;4699;-74
2023/03/20 00:47:53;;;;;;;189.20;72.70;;;;;;;;;;303054;32;3441;-73
2023/03/20 00:48:04;;;;;;;192.33;73.90;;;;;;;;;;301006;32;1239;-74
2023/03/20 00:48:15;;;;;;;193.40;74.53;;;;;;;;;;296601;33;3292;-74
2023/03/20 00:48:26;;;;;;;193.77;74.13;;;;;;;;;;294922;33;3912;-74
2023/03/20 00:48:36;;;;;;;192.23;74.22;;;;;;;;;;295809;33;1311;-74
2023/03/20 00:48:47;;;;;;;192.77;74.30;;;;;;;;;;294677;33;5227;-74
2023/03/20 00:48:57;;;;;;;193.20;74.65;;;;;;;;;;294569;33;6983;-74
2023/03/20 00:49:10;;;;;;;193.07;75.37;;;;;;;;;;296834;33;4927;-74
2023/03/20 00:49:21;;;;;;;191.93;75.07;;;;;;;;;;295435;33;4181;-74
2023/03/20 00:49:32;;;;;;;191.88;74.75;;;;;;;;;;295202;33;9434;-74
2023/03/20 00:49:44;;;;;;;199.35;75.22;;;;;;;;;;295264;33;5603;-74
2023/03/20 00:49:54;;;;;;;203.20;75.80;;;;;;;;;;293730;33;5998;-74
2023/03/20 00:50:15;;;;;;;202.48;76.28;;;;;;;;;;293049;33;819;-74
2023/03/20 00:50:26;;;;;;;194.45;76.13;;;;;;;;;;290409;33;4823;-74
2023/03/20 00:50:36;;;;;;;194.00;75.75;;;;;;;;;;286212;34;1357;-74
2023/03/20 00:50:48;;;;;;;195.40;75.97;;;;;;;;;;288467;33;6989;-74
2023/03/20 00:50:58;;;;;;;193.43;75.55;;;;;;;;;;286584;33;8041;-75
2023/03/20 00:51:08;;;;;;;193.48;75.43;;;;;;;;;;287000;34;9767;-74
2023/03/20 00:51:19;;;;;;;191.47;75.23;;;;;;;;;;290984;34;808;-74
2023/03/20 00:51:29;;;;;;;191.57;74.43;;;;;;;;;;290256;33;8446;-74
2023/03/20 00:51:39;;;;;;;191.00;73.13;;;;;;;;;;287947;34;9328;-74
2023/03/20 00:51:49;;;;;;;195.07;73.83;;;;;;;;;;286316;34;1369;-74
2023/03/20 00:52:00;;;;;;;196.27;74.20;;;;;;;;;;284528;34;7577;-74
2023/03/20 00:53:59;;;;;;;185.19;69.91;;;;;;;;;;2501587;27;20281;-74
2023/03/20 00:54:12;;;;;;;188.07;71.63;;;;;;;;;;352788;28;1173;-75
2023/03/20 00:54:23;;;;;;;190.50;72.63;;;;;;;;;;351276;28;1301;-75
2023/03/20 00:54:33;;;;;;;190.20;72.97;;;;;;;;;;348709;28;1356;-75
2023/03/20 00:54:43;;;;;;;192.90;74.33;;;;;;;;;;348749;28;1081;-75
2023/03/20 00:54:53;;;;;;;192.93;74.03;;;;;;;;;;350197;28;883;-75
2023/03/20 00:55:04;;;;;;;192.03;73.10;;;;;;;;;;350182;28;851;-74
2023/03/20 00:55:14;;;;;;;188.07;72.00;;;;;;;;;;350079;28;809;-74
2023/03/20 00:55:26;;;;;;;187.00;71.57;;;;;;;;;;350168;28;930;-75
2023/03/20 00:55:36;;;;;;;187.48;73.15;;;;;;;;;;347842;28;1293;-75
2023/03/20 00:55:46;;;;;;;187.95;73.10;;;;;;;;;;349135;28;844;-75
2023/03/20 00:55:57;;;;;;;192.70;73.97;;;;;;;;;;348732;28;1338;-75
2023/03/20 00:56:11;;;;;;;192.27;73.00;;;;;;;;;;348704;28;864;-74
2023/03/20 00:56:29;;;;;;;189.27;71.65;;;;;;;;;;348662;28;920;-75
2023/03/20 00:56:40;;;;;;;191.38;72.53;;;;;;;;;;348207;28;1550;-75
2023/03/20 00:56:53;;;;;;;194.15;73.60;;;;;;;;;;348738;28;936;-75
2023/03/20 00:57:07;;;;;;;196.00;73.20;;;;;;;;;;348779;28;903;-74
2023/03/20 00:57:21;;;;;;;193.98;73.30;;;;;;;;;;348634;28;1410;-75
2023/03/20 00:57:57;;;;;;;190.60;73.53;;;;;;;;;;350025;28;951;-76
2023/03/20 00:58:08;;;;;;;192.32;70.97;;;;;;;;;;345007;28;1500;-75
2023/03/20 00:58:18;;;;;;;192.98;71.10;;;;;;;;;;345053;28;1405;-75
2023/03/20 00:58:28;;;;;;;195.13;72.40;;;;;;;;;;347201;28;3925;-75
2023/03/20 00:58:38;;;;;;;192.60;73.07;;;;;;;;;;345814;28;3033;-76
2023/03/20 00:58:49;;;;;;;191.70;73.45;;;;;;;8.39;nan;99984.44;346118;28;843;-75
2023/03/20 00:58:59;;;;;;;192.37;73.63;;;;;;;;;;344624;28;1339;-75
2023/03/20 00:59:13;;;;;;;191.57;73.07;;;;;;;;;;343362;28;892;-75
2023/03/20 00:59:25;;;;;;;188.35;71.57;;;;;;;;;;343479;28;1027;-75
2023/03/20 00:59:36;;;;;;;189.68;72.47;;;;;;;;;;345905;28;928;-75
2023/03/20 01:00:00;;;;;;;189.90;73.53;;;;;;;;;;344423;28;1277;-75
2023/03/20 01:00:10;;;;;;;189.98;72.75;;;;;;;;;;345307;28;908;-75
2023/03/20 01:00:23;;;;;;;192.75;73.95;;;;;;;;;;344816;28;1300;-75
2023/03/20 01:00:43;;;;;;;196.00;75.20;;;;;;;;;;345848;28;1194;-75
2023/03/20 01:00:53;;;;;;;190.77;72.10;;;;;;;;;;345958;28;888;-75
2023/03/20 01:01:03;;;;;;;188.32;71.45;;;;;;;;;;346221;28;959;-75
2023/03/20 01:01:14;;;;;;;188.97;73.23;;;;;;;;;;344569;28;1209;-75
2023/03/20 01:01:24;;;;;;;197.83;75.70;;;;;;;;;;343224;28;963;-76
2023/03/20 01:01:34;;;;;;;198.85;75.30;;;;;;;;;;340565;28;1240;-76
2023/03/20 01:01:45;;;;;;;200.23;74.03;;;;;;;;;;341971;28;861;-75
2023/03/20 01:01:55;;;;;;;192.25;71.78;;;;;;;;;;340668;28;1411;-75
2023/03/20 01:02:05;;;;;;;193.60;71.53;;;;;;;;;;340939;28;1263;-75
2023/03/20 01:02:15;;;;;;;193.93;72.30;;;;;;;8.32;nan;99968.94;340582;29;1173;-75
2023/03/20 01:02:27;;;;;;;193.40;72.10;;;;;;;;;;339910;29;1242;-75
2023/03/20 01:02:37;;;;;;;188.98;71.40;;;;;;;;;;338412;29;1730;-74
2023/03/20 01:02:48;;;;;;;186.97;70.73;;;;;;;;;;339208;29;1960;-75
2023/03/20 01:02:58;;;;;;;191.35;72.32;;;;;;;;;;339300;29;1312;-74
2023/03/20 01:03:12;;;;;;;193.20;72.97;;;;;;;;;;339184;29;1328;-75
2023/03/20 01:03:22;;;;;;;194.32;73.38;;;;;;;;;;337823;29;1294;-76
2023/03/20 01:03:34;;;;;;;194.30;74.18;;;;;;;;;;338195;29;1516;-75
2023/03/20 01:03:44;;;;;;;192.32;73.88;;;;;;;;;;334188;29;1772;-75
2023/03/20 01:03:54;;;;;;;191.47;73.10;;;;;;;;;;336030;29;1515;-75
2023/03/20 01:04:08;;;;;;;190.77;72.35;;;;;;;;;;332995;29;1616;-74
2023/03/20 01:04:19;;;;;;;193.82;73.18;;;;;;;;;;328846;29;1684;-74
2023/03/20 01:04:32;;;;;;;196.43;74.33;;;;;;;;;;328955;30;1247;-74
2023/03/20 01:04:42;;;;;;;196.50;74.65;;;;;;;;;;331137;29;1909;-76
2023/03/20 01:04:53;;;;;;;192.30;74.10;;;;;;;;;;329515;29;1873;-75
2023/03/20 01:05:04;;;;;;;195.17;74.13;;;;;;;;;;325249;30;1669;-75
2023/03/20 01:05:14;;;;;;;197.95;74.85;;;;;;;;;;325429;30;848;-75
2023/03/20 01:05:25;;;;;;;198.90;74.17;;;;;;;;;;326116;30;1326;-75
2023/03/20 01:05:35;;;;;;;195.02;73.10;;;;;;;;;;323094;30;1208;-75
2023/03/20 01:05:45;;;;;;;194.63;72.97;;;;;;;;;;324376;30;1110;-75
2023/03/20 01:05:56;;;;;;;194.67;74.37;;;;;;;;;;324733;30;1619;-75
2023/03/20 01:06:07;;;;;;;197.30;75.93;;;;;;;;;;325107;30;2156;-75
2023/03/20 01:06:17;;;;;;;195.20;75.00;;;;;;;;;;328504;30;896;-74
2023/03/20 01:06:30;;;;;;;195.30;73.97;;;;;;;;;;329559;29;2094;-73
2023/03/20 01:06:40;;;;;;;194.48;73.70;;;;;;;;;;326884;30;2483;-75
2023/03/20 01:06:51;;;;;;;194.37;73.63;;;;;;;;;;326769;29;2640;-75
2023/03/20 01:07:01;;;;;;;194.25;73.55;;;;;;;;;;327916;30;857;-75
2023/03/20 01:07:12;;;;;;;202.23;74.30;;;;;;;;;;325258;30;2464;-75
2023/03/20 01:07:22;;;;;;;209.80;75.47;;;;;;;;;;325170;30;1859;-75
2023/03/20 01:07:33;;;;;;;210.77;75.75;;;;;;;;;;327499;30;1552;-76
2023/03/20 01:07:44;;;;;;;209.10;75.40;;;;;;;;;;326147;30;3962;-76
2023/03/20 01:07:55;;;;;;;206.10;75.55;;;;;;;;;;325182;30;2496;-75
2023/03/20 01:08:09;;;;;;;203.05;75.65;;;;;;;;;;322758;30;2523;-75
2023/03/20 01:08:20;;;;;;;201.13;74.55;;;;;;;;;;321293;30;2548;-75
2023/03/20 01:08:30;;;;;;;202.85;75.13;;;;;;;;;;323025;30;796;-75
2023/03/20 01:08:41;;;;;;;208.53;76.20;;;;;;;;;;320932;30;2768;-75
2023/03/20 01:08:51;;;;;;;203.20;75.90;;;;;;;;;;320685;30;3329;-75
2023/03/20 01:09:02;;;;;;;199.40;74.73;;;;;;;;;;320677;30;1331;-75
2023/03/20 01:09:13;;;;;;;192.50;73.18;;;;;;;;;;321193;30;3223;-75
2023/03/20 01:09:23;;;;;;;195.37;73.57;;;;;;;;;;320261;30;3115;-74
2023/03/20 01:09:33;;;;;;;199.75;74.60;;;;;;;;;;320278;30;2552;-74
2023/03/20 01:09:43;;;;;;;200.83;74.63;;;;;;;;;;319496;30;874;-74
2023/03/20 01:09:54;;;;;;;197.27;74.63;;;;;;;;;;318442;30;2069;-76
2023/03/20 01:10:04;;;;;;;194.85;74.93;;;;;;;;;;313940;31;2947;-74
2023/03/20 01:10:15;;;;;;;198.97;75.70;;;;;;;;;;311678;31;893;-74
2023/03/20 01:10:26;;;;;;;199.50;75.78;;;;;;;;;;313461;31;3340;-74
2023/03/20 01:10:37;;;;;;;199.93;74.45;;;;;;;;;;312692;31;3888;-74
2023/03/20 01:10:48;;;;;;;196.50;74.00;;;;;;;;;;313835;31;791;-74
2023/03/20 01:10:58;;;;;;;195.90;73.43;;;;;;;;;;311701;31;1992;-74
2023/03/20 01:11:09;;;;;;;198.63;74.43;;;;;;;;;;309848;31;5574;-74
2023/03/20 01:11:20;;;;;;;199.73;74.95;;;;;;;;;;308597;31;4472;-74
2023/03/20 01:11:31;;;;;;;202.85;75.47;;;;;;;;;;308721;32;845;-74
2023/03/20 01:11:42;;;;;;;200.38;75.30;;;;;;;;;;308644;31;4663;-75
2023/03/20 01:11:52;;;;;;;201.63;75.23;;;;;;;;;;306232;32;3499;-74
2023/03/20 01:12:02;;;;;;;199.17;75.30;;;;;;;;;;303984;32;1312;-74
2023/03/20 01:12:12;;;;;;;201.07;75.83;;;;;;;;;;299220;32;3231;-74
2023/03/20 01:12:23;;;;;;;198.80;75.30;;;;;;;;;;300855;32;4448;-74
2023/03/20 01:12:34;;;;;;;201.00;76.00;;;;;;;;;;301765;32;4935;-74
2023/03/20 01:12:44;;;;;;;199.77;76.47;;;;;;;;;;303015;32;798;-74
2023/03/20 01:12:55;;;;;;;197.52;76.15;;;;;;;;;;301137;32;6691;-74
2023/03/20 01:13:05;;;;;;;195.33;75.57;;;;;;;;;;300260;32;7223;-75
2023/03/20 01:13:18;;;;;;;195.37;74.53;;;;;;;;;;298928;33;798;-76